Time;durP1;ratioP1;P1;durP2;ratioP2;P2;SDS_P1;SDS_P2;PMS_P1;PMS_P2;Temp;Humidity;BMP_temperature;BMP_pressure;BME280_temperature;BME280_humidity;BME280_pressure;Samples;Min_cycle;Max_cycle;Signal;HPM_P1;HPM_P2
2022/08/03 00:00:38;;;;;;;5.20;2.40;;;16.80;99.90;;;;;;5155004;27;20023;-76
2022/08/03 00:03:04;;;;;;;2.20;2.00;;;16.80;99.90;;;;;;5156002;27;20019;-76
2022/08/03 00:05:32;;;;;;;2.78;2.10;;;16.80;99.90;;;;;;5155237;27;20034;-77
2022/08/03 00:07:58;;;;;;;3.35;2.55;;;16.70;99.90;;;;;;5154822;27;20022;-77
2022/08/03 00:10:25;;;;;;;2.47;2.20;;;16.70;99.90;;;;;;5156024;27;20018;-77
2022/08/03 00:12:51;;;;;;;2.10;1.98;;;16.70;99.90;;;;;;5155185;27;20035;-77
2022/08/03 00:15:16;;;;;;;3.20;2.30;;;16.70;99.90;;;;;;5155717;27;20023;-76
2022/08/03 00:17:43;;;;;;;2.75;2.47;;;16.70;99.90;;;;;;5155716;27;20387;-77
2022/08/03 00:20:09;;;;;;;2.28;2.08;;;16.60;99.90;;;;;;5154862;27;20022;-77
2022/08/03 00:22:34;;;;;;;2.47;2.28;;;16.60;99.90;;;;;;5155628;27;20027;-77
2022/08/03 00:25:00;;;;;;;2.40;2.20;;;16.60;99.90;;;;;;5154547;27;20467;-77
2022/08/03 00:27:26;;;;;;;4.45;2.45;;;16.50;99.90;;;;;;5154556;27;20027;-77
2022/08/03 00:29:51;;;;;;;2.40;2.20;;;16.50;99.90;;;;;;5156293;27;20026;-77
2022/08/03 00:32:18;;;;;;;2.45;2.25;;;16.50;99.90;;;;;;5155684;27;20031;-77
2022/08/03 00:34:43;;;;;;;3.00;2.35;;;16.50;99.90;;;;;;5154017;27;20023;-77
2022/08/03 00:37:09;;;;;;;2.72;2.53;;;16.50;99.90;;;;;;5155354;27;20420;-77
2022/08/03 00:39:35;;;;;;;2.60;2.40;;;16.40;99.90;;;;;;5154464;27;20018;-77
2022/08/03 00:42:04;;;;;;;4.78;2.30;;;16.40;99.90;;;;;;5153843;27;20086;-77
2022/08/03 00:44:30;;;;;;;2.58;2.38;;;16.40;99.90;;;;;;5154451;27;20432;-77
2022/08/03 00:46:55;;;;;;;3.00;2.30;;;16.40;99.90;;;;;;5155368;27;20023;-77
2022/08/03 00:49:21;;;;;;;3.17;2.08;;;16.40;99.90;;;;;;5155280;27;20067;-77
2022/08/03 00:51:47;;;;;;;2.67;2.20;;;16.30;99.90;;;;;;5154203;27;20490;-77
2022/08/03 00:54:14;;;;;;;3.67;2.88;;;16.30;99.90;;;;;;5154333;27;20078;-77
2022/08/03 00:56:41;;;;;;;3.05;2.75;;;16.30;99.90;;;;;;5155225;27;20487;-77
2022/08/03 00:59:09;;;;;;;3.60;2.20;;;16.30;99.90;;;;;;5155204;27;20067;-77
2022/08/03 01:01:34;;;;;;;3.10;2.90;;;16.30;99.90;;;;;;5154508;27;20030;-77
2022/08/03 01:04:00;;;;;;;3.70;2.65;;;16.20;99.90;;;;;;5155596;27;20015;-77
2022/08/03 01:07:02;;;;;;;2.85;2.45;;;16.20;99.90;;;;;;5153997;27;20467;-77
2022/08/03 01:09:54;;;;;;;3.28;2.97;;;16.10;99.90;;;;;;5154584;27;20034;-77
2022/08/03 01:12:35;;;;;;;3.50;2.67;;;16.10;99.90;;;;;;5148826;27;20475;-77
2022/08/03 01:15:06;;;;;;;2.75;2.45;;;16.00;99.90;;;;;;5155058;27;20022;-77
2022/08/03 01:17:56;;;;;;;2.67;2.47;;;16.00;99.90;;;;;;5153994;27;20072;-77
2022/08/03 01:20:24;;;;;;;4.60;2.60;;;16.00;99.90;;;;;;5154034;27;20027;-77
2022/08/03 01:23:08;;;;;;;2.58;2.42;;;16.00;99.90;;;;;;5154122;27;20483;-77
2022/08/03 01:25:48;;;;;;;3.40;2.75;;;15.90;99.90;;;;;;5154929;27;20031;-77
2022/08/03 01:28:55;;;;;;;2.78;2.58;;;15.90;99.90;;;;;;5154118;27;20516;-77
2022/08/03 01:31:26;;;;;;;8.77;2.80;;;15.90;99.90;;;;;;5154055;27;20027;-77
2022/08/03 01:34:00;;;;;;;4.00;2.75;;;15.90;99.90;;;;;;5153850;27;20038;-77
2022/08/03 01:36:43;;;;;;;3.08;2.78;;;15.90;99.90;;;;;;5153950;27;20046;-77
2022/08/03 01:39:10;;;;;;;2.72;2.53;;;15.90;99.90;;;;;;5153897;27;20027;-76
2022/08/03 01:41:48;;;;;;;3.00;2.70;;;15.80;99.90;;;;;;5153601;27;20126;-76
2022/08/03 01:44:14;;;;;;;3.38;2.78;;;15.80;99.90;;;;;;5153746;27;20029;-77
2022/08/03 01:46:40;;;;;;;2.67;2.50;;;15.80;99.90;;;;;;5156148;27;20459;-77
2022/08/03 01:49:09;;;;;;;2.63;2.42;;;15.80;99.90;;;;;;5157598;27;20018;-77
2022/08/03 01:51:38;;;;;;;3.03;2.72;;;15.80;99.90;;;;;;5158781;27;20046;-77
2022/08/03 01:54:05;;;;;;;6.72;2.97;;;15.80;99.90;;;;;;5157591;27;20026;-77
2022/08/03 01:56:32;;;;;;;2.97;2.75;;;15.80;99.90;;;;;;5157503;27;20019;-77
2022/08/03 01:59:01;;;;;;;3.28;3.05;;;15.80;99.90;;;;;;5157502;27;20539;-77
2022/08/03 02:01:28;;;;;;;2.78;2.47;;;15.80;99.90;;;;;;5157368;27;20042;-77
2022/08/03 02:03:56;;;;;;;3.30;3.00;;;15.80;99.90;;;;;;5157280;27;20533;-76
2022/08/03 02:06:23;;;;;;;2.92;2.42;;;15.80;99.90;;;;;;5157433;27;20019;-76
2022/08/03 02:08:51;;;;;;;2.83;2.63;;;15.80;99.90;;;;;;5158191;27;20095;-76
2022/08/03 02:11:17;;;;;;;3.22;2.92;;;15.70;99.90;;;;;;5157218;27;20022;-76
2022/08/03 02:13:44;;;;;;;3.45;3.15;;;15.70;99.90;;;;;;5156955;27;20075;-76
2022/08/03 02:16:12;;;;;;;9.38;3.15;;;15.70;99.90;;;;;;5157070;27;20114;-77
2022/08/03 02:18:40;;;;;;;2.85;2.65;;;15.70;99.90;;;;;;5158605;27;20038;-76
2022/08/03 02:21:09;;;;;;;2.75;2.55;;;15.70;99.90;;;;;;5157011;27;20019;-77
2022/08/03 02:23:36;;;;;;;3.70;2.83;;;15.70;99.90;;;;;;5156976;27;20058;-77
2022/08/03 02:26:05;;;;;;;2.70;2.50;;;15.70;99.90;;;;;;5156856;27;20371;-77
2022/08/03 02:28:39;;;;;;;2.72;2.53;;;15.60;99.90;;;;;;5157935;27;20027;-77
2022/08/03 02:31:12;;;;;;;7.32;2.67;;;15.60;99.90;;;;;;5157421;27;20117;-77
2022/08/03 02:33:43;;;;;;;3.13;2.78;;;15.60;99.90;;;;;;5156671;27;20484;-77
2022/08/03 02:36:13;;;;;;;3.85;2.42;;;15.60;99.90;;;;;;5156687;27;20026;-77
2022/08/03 02:38:41;;;;;;;3.25;2.95;;;15.50;99.90;;;;;;5156523;27;20475;-77
2022/08/03 02:41:16;;;;;;;2.70;2.50;;;15.50;99.90;;;;;;5157767;27;20042;-77
2022/08/03 02:43:45;;;;;;;3.50;2.83;;;15.50;99.90;;;;;;5157566;27;20498;-77
2022/08/03 02:46:14;;;;;;;2.87;2.67;;;15.40;99.90;;;;;;5156921;27;20023;-77
2022/08/03 02:48:41;;;;;;;3.75;3.13;;;15.40;99.90;;;;;;5156491;27;20030;-77
2022/08/03 02:51:08;;;;;;;10.32;3.83;;;15.30;99.90;;;;;;5156561;27;20463;-77
2022/08/03 02:53:35;;;;;;;6.40;3.17;;;15.30;99.90;;;;;;5156206;27;20030;-77
2022/08/03 02:56:02;;;;;;;4.13;3.13;;;15.30;99.90;;;;;;5157877;27;20456;-77
2022/08/03 02:58:30;;;;;;;4.38;2.80;;;15.30;99.90;;;;;;5155280;27;20026;-77
2022/08/03 03:00:56;;;;;;;3.67;2.72;;;15.30;99.90;;;;;;5157476;27;20454;-77
2022/08/03 03:03:23;;;;;;;2.80;2.60;;;15.30;99.90;;;;;;5156377;27;20498;-76
2022/08/03 03:05:49;;;;;;;3.55;2.80;;;15.30;99.90;;;;;;5156034;27;20026;-77
2022/08/03 03:08:17;;;;;;;3.72;2.80;;;15.30;99.90;;;;;;5157351;27;20019;-76
2022/08/03 03:10:44;;;;;;;3.33;2.83;;;15.20;99.90;;;;;;5155945;27;20082;-76
2022/08/03 03:13:12;;;;;;;4.03;2.78;;;15.20;99.90;;;;;;5157217;27;20035;-77
2022/08/03 03:15:40;;;;;;;3.47;3.17;;;15.20;99.90;;;;;;5156950;27;20025;-77
2022/08/03 03:18:08;;;;;;;2.88;2.67;;;15.20;99.90;;;;;;5156053;27;20171;-77
2022/08/03 03:20:36;;;;;;;3.50;3.20;;;15.20;99.90;;;;;;5157495;27;20451;-77
2022/08/03 03:23:02;;;;;;;4.20;2.92;;;15.30;99.90;;;;;;5157001;27;20039;-77
2022/08/03 03:25:32;;;;;;;3.58;3.08;;;15.20;99.90;;;;;;5157865;27;20026;-77
2022/08/03 03:28:02;;;;;;;3.33;2.70;;;15.20;99.90;;;;;;5158112;27;20023;-77
2022/08/03 03:30:28;;;;;;;3.97;2.85;;;15.20;99.90;;;;;;5157130;27;20122;-77
2022/08/03 03:32:56;;;;;;;4.47;3.03;;;15.20;99.90;;;;;;5156338;27;20035;-77
2022/08/03 03:35:21;;;;;;;2.75;2.55;;;15.20;99.90;;;;;;5156654;27;20491;-77
2022/08/03 03:37:47;;;;;;;4.55;2.67;;;15.20;99.90;;;;;;5156446;27;20054;-77
2022/08/03 03:40:13;;;;;;;3.95;2.95;;;15.20;99.90;;;;;;5156254;27;20073;-77
2022/08/03 03:42:39;;;;;;;4.43;3.20;;;15.20;99.90;;;;;;5156858;27;20027;-77
2022/08/03 03:45:07;;;;;;;10.73;3.13;;;15.10;99.90;;;;;;5155844;27;20023;-78
2022/08/03 03:47:36;;;;;;;3.00;2.70;;;15.10;99.90;;;;;;5156516;27;20035;-77
2022/08/03 03:50:05;;;;;;;4.00;3.03;;;15.10;99.90;;;;;;5156453;27;20026;-77
2022/08/03 03:52:32;;;;;;;4.78;3.33;;;15.20;99.90;;;;;;5155293;27;20483;-77
2022/08/03 03:54:57;;;;;;;3.45;3.08;;;15.20;99.90;;;;;;5156349;27;20018;-77
2022/08/03 03:57:23;;;;;;;3.17;2.83;;;15.20;99.90;;;;;;5156051;27;20490;-77
2022/08/03 03:59:48;;;;;;;3.95;3.00;;;15.20;99.90;;;;;;5156038;27;20471;-77
2022/08/03 04:02:14;;;;;;;3.13;2.83;;;15.20;99.90;;;;;;5154932;27;20467;-77
2022/08/03 04:13:04;;;;;;;3.80;3.08;;;15.30;99.90;;;;;;5155825;27;20095;-77
2022/08/03 04:15:32;;;;;;;4.30;2.72;;;15.30;99.90;;;;;;5155960;27;20068;-77
2022/08/03 04:17:58;;;;;;;5.47;3.33;;;15.30;99.90;;;;;;5154577;27;20035;-77
2022/08/03 04:20:28;;;;;;;3.63;2.65;;;15.30;99.90;;;;;;5155453;27;20018;-77
2022/08/03 04:22:58;;;;;;;4.72;2.83;;;15.40;99.90;;;;;;5154798;27;20023;-77
2022/08/03 04:25:28;;;;;;;3.90;3.25;;;15.40;99.90;;;;;;5154916;27;20053;-77
2022/08/03 04:27:58;;;;;;;3.08;2.80;;;15.40;99.90;;;;;;5155715;27;20504;-77
2022/08/03 04:30:26;;;;;;;3.28;2.97;;;15.50;99.90;;;;;;5154331;27;20043;-78
2022/08/03 04:32:54;;;;;;;3.10;2.88;;;15.50;99.90;;;;;;5154324;27;20380;-66
2022/08/03 04:35:22;;;;;;;5.43;2.78;;;15.60;99.90;;;;;;5155598;27;20026;-61
2022/08/03 04:37:50;;;;;;;4.90;3.08;;;15.70;99.90;;;;;;5155681;27;20175;-61
2022/08/03 04:40:21;;;;;;;3.85;3.53;;;15.80;99.90;;;;;;5155289;27;20054;-61
2022/08/03 04:42:48;;;;;;;3.72;2.72;;;15.90;99.90;;;;;;5155860;27;20038;-61
2022/08/03 04:45:16;;;;;;;2.90;2.70;;;16.00;99.90;;;;;;5155298;27;20475;-62
2022/08/03 04:47:42;;;;;;;3.70;2.72;;;16.10;99.90;;;;;;5154224;27;20037;-62
2022/08/03 04:50:09;;;;;;;2.75;2.55;;;16.10;99.90;;;;;;5155411;27;20023;-63
2022/08/03 04:52:35;;;;;;;8.07;2.83;;;16.20;99.90;;;;;;5155377;27;20482;-62
2022/08/03 04:55:00;;;;;;;4.78;2.53;;;16.20;99.90;;;;;;5155114;27;20023;-62
2022/08/03 04:57:26;;;;;;;5.82;3.33;;;16.30;99.90;;;;;;5155377;27;20050;-62
2022/08/03 04:59:56;;;;;;;5.15;2.75;;;16.30;99.90;;;;;;5155333;27;20034;-62
2022/08/03 05:02:22;;;;;;;5.80;2.78;;;16.40;99.90;;;;;;5155785;27;20033;-61
2022/08/03 05:04:48;;;;;;;4.93;2.53;;;16.50;99.90;;;;;;5155554;27;20042;-62
2022/08/03 05:07:16;;;;;;;2.53;2.30;;;16.50;99.90;;;;;;5155292;27;20019;-62
2022/08/03 05:09:42;;;;;;;2.60;2.40;;;16.50;99.90;;;;;;5155080;27;20019;-77
2022/08/03 05:12:08;;;;;;;2.22;2.13;;;16.50;99.90;;;;;;5153915;27;20094;-77
2022/08/03 05:14:36;;;;;;;2.70;2.50;;;17.00;99.90;;;;;;5153701;27;20034;-78
2022/08/03 05:17:03;;;;;;;2.70;2.40;;;16.60;99.90;;;;;;5153782;27;20117;-76
2022/08/03 05:19:29;;;;;;;3.60;2.60;;;16.70;99.90;;;;;;5154291;27;20034;-76
2022/08/03 05:21:55;;;;;;;3.13;2.45;;;16.80;99.90;;;;;;5156627;27;20387;-76
2022/08/03 05:24:20;;;;;;;3.17;2.20;;;16.90;99.90;;;;;;5158818;27;20067;-77
2022/08/03 05:26:46;;;;;;;4.65;2.30;;;17.00;99.90;;;;;;5159118;27;20026;-77
2022/08/03 05:29:12;;;;;;;4.20;2.58;;;17.00;99.90;;;;;;5157927;27;20048;-77
2022/08/03 05:31:37;;;;;;;3.60;2.53;;;17.10;99.90;;;;;;5157749;27;20014;-76
2022/08/03 05:34:03;;;;;;;2.35;2.17;;;17.20;99.90;;;;;;5158574;27;20463;-76
2022/08/03 05:36:28;;;;;;;5.07;2.88;;;17.30;99.90;;;;;;5159020;27;20456;-76
2022/08/03 05:38:54;;;;;;;2.20;2.00;;;17.40;99.90;;;;;;5159194;27;20015;-76
2022/08/03 05:41:20;;;;;;;2.83;2.60;;;17.50;99.90;;;;;;5158040;27;20494;-76
2022/08/03 05:43:45;;;;;;;3.40;3.10;;;17.60;99.90;;;;;;5158917;27;20026;-64
2022/08/03 05:46:11;;;;;;;2.88;2.67;;;17.70;99.90;;;;;;5158811;27;20045;-63
2022/08/03 05:48:37;;;;;;;5.43;2.38;;;17.80;99.90;;;;;;5157493;27;20071;-64
2022/08/03 05:51:05;;;;;;;2.38;2.20;;;18.00;99.90;;;;;;5159125;27;20413;-64
2022/08/03 05:53:34;;;;;;;2.45;2.25;;;18.10;99.90;;;;;;5157376;27;20121;-63
2022/08/03 05:56:00;;;;;;;3.83;2.28;;;18.20;99.90;;;;;;5158843;27;20058;-64
2022/08/03 05:58:25;;;;;;;2.33;1.75;;;18.40;99.90;;;;;;5158625;27;20055;-65
2022/08/03 06:00:51;;;;;;;2.83;2.00;;;18.60;99.90;;;;;;5158796;27;20027;-63
2022/08/03 06:03:17;;;;;;;2.38;1.67;;;18.90;99.90;;;;;;5157646;27;20023;-63
2022/08/03 06:05:42;;;;;;;2.10;1.88;;;19.40;99.90;;;;;;5158633;27;20050;-65
2022/08/03 06:08:08;;;;;;;2.40;1.50;;;20.00;99.90;;;;;;5158151;27;20022;-64
2022/08/03 06:10:33;;;;;;;4.25;1.52;;;20.60;99.90;;;;;;5158411;27;20102;-62
2022/08/03 06:12:59;;;;;;;1.73;1.60;;;21.10;99.90;;;;;;5158513;27;20105;-62
2022/08/03 06:15:24;;;;;;;3.83;1.27;;;21.60;99.90;;;;;;5156890;27;20022;-62
2022/08/03 06:17:51;;;;;;;1.63;1.13;;;22.20;99.90;;;;;;5156889;27;20022;-63
2022/08/03 06:20:18;;;;;;;5.22;2.05;;;22.70;99.90;;;;;;5156711;27;20053;-63
2022/08/03 06:22:44;;;;;;;3.30;1.42;;;23.10;99.90;;;;;;5158444;27;20022;-63
2022/08/03 06:25:10;;;;;;;2.47;1.90;;;23.40;99.90;;;;;;5157714;27;20027;-63
2022/08/03 06:27:38;;;;;;;1.30;1.20;;;23.70;99.90;;;;;;5158293;27;20087;-63
2022/08/03 06:30:07;;;;;;;2.38;1.35;;;24.00;99.90;;;;;;5158181;27;20110;-63
2022/08/03 06:32:33;;;;;;;1.60;1.30;;;24.30;99.90;;;;;;5156975;27;20034;-62
2022/08/03 06:34:59;;;;;;;2.80;1.30;;;24.70;99.90;;;;;;5158169;27;20061;-68
2022/08/03 06:37:26;;;;;;;1.00;1.00;;;24.90;99.90;;;;;;5156619;27;20027;-58
2022/08/03 06:39:52;;;;;;;1.50;1.25;;;25.10;99.90;;;;;;5157614;27;20042;-59
2022/08/03 06:42:17;;;;;;;2.40;1.30;;;25.40;99.90;;;;;;5157933;27;20018;-58
2022/08/03 06:44:43;;;;;;;1.40;1.30;;;25.70;99.90;;;;;;5157464;27;20429;-58
2022/08/03 06:47:08;;;;;;;3.17;1.20;;;25.80;98.80;;;;;;5157675;27;20031;-58
2022/08/03 06:49:34;;;;;;;1.63;1.50;;;25.90;98.20;;;;;;5157909;27;20026;-58
2022/08/03 06:52:00;;;;;;;1.13;1.02;;;26.10;97.10;;;;;;5157222;27;20037;-61
2022/08/03 06:54:26;;;;;;;1.63;1.10;;;26.30;96.40;;;;;;5156284;27;20030;-58
2022/08/03 06:56:51;;;;;;;1.75;1.00;;;26.50;95.70;;;;;;5156221;27;20018;-59
2022/08/03 06:59:17;;;;;;;2.20;1.33;;;26.70;94.60;;;;;;5157620;27;20027;-60
2022/08/03 07:01:42;;;;;;;1.27;1.17;;;26.90;93.20;;;;;;5157355;27;20050;-73
2022/08/03 07:04:08;;;;;;;1.70;1.13;;;27.10;91.70;;;;;;5157403;27;20030;-73
2022/08/03 07:06:34;;;;;;;1.05;1.00;;;27.40;90.10;;;;;;5156288;27;20034;-74
2022/08/03 07:09:00;;;;;;;1.35;1.20;;;27.70;88.30;;;;;;5156442;27;20034;-75
2022/08/03 07:11:27;;;;;;;1.23;1.13;;;28.00;84.50;;;;;;5157409;27;20019;-75
2022/08/03 07:13:53;;;;;;;1.20;1.10;;;28.30;82.00;;;;;;5157032;27;20030;-76
2022/08/03 07:16:18;;;;;;;1.77;0.90;;;28.60;78.90;;;;;;5155875;27;20117;-74
2022/08/03 07:18:44;;;;;;;4.07;1.13;;;28.50;77.40;;;;;;5155838;27;20356;-76
2022/08/03 07:21:11;;;;;;;1.48;1.00;;;28.80;76.40;;;;;;5156982;27;20054;-74
2022/08/03 07:23:37;;;;;;;2.20;0.98;;;29.10;75.00;;;;;;5156935;27;20079;-75
2022/08/03 07:26:03;;;;;;;1.85;1.30;;;29.10;72.80;;;;;;5157232;27;20384;-74
2022/08/03 07:28:29;;;;;;;3.78;1.23;;;29.20;73.10;;;;;;5156053;27;20027;-74
2022/08/03 07:30:55;;;;;;;0.80;0.80;;;29.50;71.40;;;;;;5156835;27;20034;-77
2022/08/03 07:33:20;;;;;;;0.85;0.85;;;29.80;69.00;;;;;;5156409;27;20031;-76
2022/08/03 07:35:46;;;;;;;2.88;1.08;;;30.10;68.60;;;;;;5156717;27;20029;-75
2022/08/03 07:38:12;;;;;;;1.38;1.25;;;30.30;66.50;;;;;;5155452;27;20034;-78
2022/08/03 07:40:38;;;;;;;1.27;1.02;;;30.60;66.20;;;;;;5156603;27;20045;-76
2022/08/03 07:43:03;;;;;;;2.05;1.00;;;30.90;64.80;;;;;;5155223;27;20051;-73
2022/08/03 07:45:30;;;;;;;2.60;1.10;;;31.20;64.20;;;;;;5155162;27;20118;-72
2022/08/03 07:47:56;;;;;;;3.17;1.20;;;31.50;62.60;;;;;;5156780;27;20106;-77
2022/08/03 07:50:22;;;;;;;3.20;1.45;;;31.60;61.20;;;;;;5156192;27;20456;-74
2022/08/03 07:52:48;;;;;;;1.83;1.38;;;31.70;59.70;;;;;;5154675;27;20126;-72
2022/08/03 07:55:15;;;;;;;2.40;1.23;;;31.50;60.30;;;;;;5156422;27;20106;-73
2022/08/03 07:57:40;;;;;;;2.70;1.10;;;31.70;58.00;;;;;;5155107;27;20067;-72
2022/08/03 08:00:12;;;;;;;1.98;1.08;;;31.60;56.20;;;;;;5154948;27;20027;-74
2022/08/03 08:02:39;;;;;;;2.13;1.10;;;31.80;57.20;;;;;;5155486;27;20069;-74
2022/08/03 08:05:05;;;;;;;1.75;0.95;;;32.10;56.20;;;;;;5156251;27;20050;-77
2022/08/03 08:07:31;;;;;;;3.55;0.98;;;32.70;55.30;;;;;;5156548;27;20030;-75
2022/08/03 08:09:56;;;;;;;1.13;0.82;;;33.10;53.80;;;;;;5154875;27;20431;-75
2022/08/03 08:12:22;;;;;;;1.20;1.10;;;32.90;51.10;;;;;;5156304;27;20035;-73
2022/08/03 08:14:48;;;;;;;1.42;1.42;;;32.50;51.30;;;;;;5154808;27;20022;-82
2022/08/03 08:17:14;;;;;;;3.55;1.10;;;32.10;51.50;;;;;;5154538;27;20467;-81
2022/08/03 08:19:40;;;;;;;2.42;0.90;;;32.40;50.70;;;;;;5155964;27;20027;-78
2022/08/03 08:22:05;;;;;;;1.42;0.90;;;32.30;50.80;;;;;;5154531;27;20133;-77
2022/08/03 08:24:32;;;;;;;1.58;0.90;;;31.30;50.80;;;;;;5154790;27;20107;-82
2022/08/03 08:26:59;;;;;;;1.65;0.90;;;31.40;51.10;;;;;;5155214;27;20023;-80
2022/08/03 08:29:25;;;;;;;2.78;1.00;;;31.70;51.90;;;;;;5157823;27;20176;-75
2022/08/03 08:31:51;;;;;;;2.10;0.80;;;31.90;49.10;;;;;;5158561;27;20104;-82
2022/08/03 08:34:17;;;;;;;2.35;0.88;;;32.00;49.10;;;;;;5158524;27;20033;-76
2022/08/03 08:36:42;;;;;;;2.80;0.80;;;32.50;50.00;;;;;;5159249;27;20018;-75
2022/08/03 08:39:08;;;;;;;2.08;1.00;;;32.50;49.20;;;;;;5157095;27;20026;-75
2022/08/03 08:41:34;;;;;;;1.75;1.25;;;32.80;49.50;;;;;;5157209;27;20126;-76
2022/08/03 08:44:03;;;;;;;1.00;1.00;;;32.50;48.20;;;;;;5156042;27;20027;-76
2022/08/03 08:46:32;;;;;;;1.02;0.70;;;32.30;48.10;;;;;;5154541;27;20028;-75
2022/08/03 08:48:59;;;;;;;1.85;0.80;;;32.50;48.00;;;;;;5155515;27;20098;-77
2022/08/03 08:51:36;;;;;;;2.55;0.80;;;32.60;48.00;;;;;;5155320;27;20034;-77
2022/08/03 08:54:03;;;;;;;5.00;1.00;;;32.00;48.60;;;;;;5154353;27;20027;-76
2022/08/03 08:56:30;;;;;;;2.00;0.70;;;32.00;50.10;;;;;;5154886;27;20034;-77
2022/08/03 08:58:59;;;;;;;1.10;0.87;;;32.30;47.40;;;;;;5154238;27;20019;-77
2022/08/03 09:01:25;;;;;;;3.58;0.70;;;32.70;46.90;;;;;;5154161;27;20031;-76
2022/08/03 09:03:53;;;;;;;2.80;1.17;;;33.50;46.80;;;;;;5155188;27;20122;-86
2022/08/03 09:06:19;;;;;;;1.85;0.68;;;33.90;46.00;;;;;;5155503;27;20057;-79
2022/08/03 09:08:44;;;;;;;3.63;1.00;;;34.10;46.10;;;;;;5154152;27;20114;-76
2022/08/03 09:11:11;;;;;;;1.33;0.80;;;34.00;44.90;;;;;;5154112;27;20109;-81
2022/08/03 09:13:36;;;;;;;1.30;1.13;;;34.00;45.00;;;;;;5153951;27;20060;-76
2022/08/03 09:16:20;;;;;;;1.70;0.80;;;34.40;44.50;;;;;;5154004;27;20026;-78
2022/08/03 09:18:48;;;;;;;1.13;1.00;;;34.30;43.80;;;;;;5153890;27;20046;-77
2022/08/03 09:21:22;;;;;;;0.65;0.65;;;33.60;44.00;;;;;;5153339;27;20023;-74
2022/08/03 09:23:53;;;;;;;4.55;1.95;;;33.80;43.70;;;;;;5154001;27;20564;-76
2022/08/03 09:26:27;;;;;;;1.13;1.05;;;34.30;43.60;;;;;;5155156;27;20107;-72
2022/08/03 09:29:01;;;;;;;3.50;0.60;;;34.50;43.60;;;;;;5155378;27;20026;-78
2022/08/03 09:31:38;;;;;;;1.83;0.90;;;34.50;42.20;;;;;;5153402;27;20083;-79
2022/08/03 09:34:16;;;;;;;1.90;0.90;;;34.70;42.40;;;;;;5154839;27;20033;-78
2022/08/03 09:36:47;;;;;;;1.65;0.93;;;34.10;41.90;;;;;;5153898;27;20494;-76
2022/08/03 09:39:18;;;;;;;0.85;0.85;;;33.90;42.60;;;;;;5155078;27;20053;-76
2022/08/03 09:41:46;;;;;;;0.82;0.80;;;33.50;42.80;;;;;;5153653;27;20399;-80
2022/08/03 09:44:13;;;;;;;2.17;0.80;;;34.00;42.90;;;;;;5154979;27;20553;-75
2022/08/03 09:46:55;;;;;;;1.77;0.73;;;34.50;41.40;;;;;;5153659;27;20575;-76
2022/08/03 09:49:21;;;;;;;0.90;0.82;;;34.90;41.30;;;;;;5154041;27;20420;-78
2022/08/03 09:51:47;;;;;;;1.55;1.10;;;35.10;40.40;;;;;;5153411;27;20031;-77
2022/08/03 09:54:25;;;;;;;1.48;0.55;;;35.20;38.60;;;;;;5154542;27;20019;-77
2022/08/03 09:56:51;;;;;;;1.05;1.05;;;35.30;37.80;;;;;;5153811;27;20027;-75
2022/08/03 09:59:43;;;;;;;0.80;0.80;;;35.60;39.10;;;;;;5155111;27;20034;-76
2022/08/03 10:02:23;;;;;;;0.63;0.63;;;35.80;38.70;;;;;;5150934;27;20058;-77
2022/08/03 10:04:51;;;;;;;0.60;0.60;;;35.50;38.50;;;;;;5154879;27;20102;-78
2022/08/03 10:07:18;;;;;;;1.27;0.77;;;35.00;37.60;;;;;;5154334;27;20030;-76
2022/08/03 10:09:56;;;;;;;0.80;0.75;;;35.50;37.60;;;;;;5158544;27;20018;-77
2022/08/03 10:12:22;;;;;;;1.08;0.73;;;35.80;37.00;;;;;;5158040;27;20071;-78
2022/08/03 10:14:49;;;;;;;0.70;0.70;;;36.20;36.60;;;;;;5158318;27;20034;-77
2022/08/03 10:17:14;;;;;;;0.60;0.60;;;36.60;35.50;;;;;;5158077;27;20050;-78
2022/08/03 10:19:40;;;;;;;0.52;0.52;;;37.00;35.00;;;;;;5156595;27;20383;-77
2022/08/03 10:22:14;;;;;;;4.28;0.85;;;37.00;33.50;;;;;;5156981;27;20034;-79
2022/08/03 10:24:54;;;;;;;0.60;0.60;;;37.10;33.80;;;;;;5156754;27;20018;-78
2022/08/03 10:27:22;;;;;;;1.92;0.88;;;37.00;33.70;;;;;;5157906;27;20038;-79
2022/08/03 10:29:54;;;;;;;1.00;1.00;;;37.20;33.70;;;;;;5158141;27;20033;-78
2022/08/03 10:32:42;;;;;;;1.10;0.77;;;37.60;34.00;;;;;;5157229;27;20298;-78
2022/08/03 10:35:15;;;;;;;1.38;0.80;;;37.50;34.00;;;;;;5157146;27;20378;-78
2022/08/03 10:37:44;;;;;;;3.72;1.02;;;37.30;33.20;;;;;;5156994;27;20079;-77
2022/08/03 10:40:18;;;;;;;1.75;0.88;;;37.40;33.20;;;;;;5156472;27;20043;-78
2022/08/03 10:42:45;;;;;;;0.85;0.85;;;36.70;33.40;;;;;;5156734;27;20027;-80
2022/08/03 10:45:23;;;;;;;0.70;0.70;;;35.90;33.60;;;;;;5157771;27;20046;-76
2022/08/03 10:47:50;;;;;;;1.10;0.75;;;36.00;33.60;;;;;;5156604;27;20121;-83
2022/08/03 10:50:17;;;;;;;0.67;0.67;;;36.80;33.20;;;;;;5156621;27;20030;-79
2022/08/03 10:52:56;;;;;;;4.57;0.73;;;37.60;32.40;;;;;;5156716;27;20023;-78
2022/08/03 10:58:51;;;;;;;1.20;1.10;;;38.00;31.70;;;;;;5157726;27;20045;-81
2022/08/03 11:01:18;;;;;;;0.60;0.60;;;38.20;30.80;;;;;;5156256;27;20498;-79
2022/08/03 11:03:56;;;;;;;2.90;0.60;;;38.10;31.30;;;;;;5156233;27;20069;-81
2022/08/03 11:06:23;;;;;;;;;;;38.60;30.80;;;;;;5157886;27;20061;-81
2022/08/03 11:09:11;;;;;;;0.90;0.80;;;38.40;31.00;;;;;;5156471;27;20279;-79
2022/08/03 11:11:37;;;;;;;1.75;0.70;;;38.80;31.40;;;;;;5156774;27;20271;-79
2022/08/03 11:14:07;;;;;;;2.05;0.60;;;38.60;31.60;;;;;;5155979;27;20035;-78
2022/08/03 11:16:37;;;;;;;1.08;0.98;;;38.90;31.10;;;;;;5155878;27;20059;-78
2022/08/03 11:19:21;;;;;;;2.75;0.70;;;39.40;30.90;;;;;;5155883;27;20023;-79
2022/08/03 11:21:49;;;;;;;0.70;0.70;;;39.60;30.70;;;;;;5156351;27;20022;-78
2022/08/03 11:24:41;;;;;;;0.93;0.75;;;39.40;30.10;;;;;;5155734;27;20372;-79
2022/08/03 11:27:18;;;;;;;0.60;0.60;;;38.80;30.10;;;;;;5155655;27;20026;-79
2022/08/03 11:30:12;;;;;;;0.75;0.75;;;38.60;30.40;;;;;;5155671;27;20464;-79
2022/08/03 11:32:44;;;;;;;1.20;0.77;;;39.20;30.70;;;;;;5155625;27;20117;-77
2022/08/03 11:35:24;;;;;;;2.97;0.60;;;39.70;29.80;;;;;;5156878;27;20023;-77
2022/08/03 11:37:59;;;;;;;0.75;0.75;;;40.20;29.00;;;;;;5155616;27;20030;-79
2022/08/03 11:40:51;;;;;;;2.72;0.73;;;40.60;29.20;;;;;;5155211;27;20452;-79
2022/08/03 11:43:34;;;;;;;0.40;0.40;;;40.70;28.90;;;;;;5154816;27;20034;-79
2022/08/03 11:46:05;;;;;;;1.92;0.75;;;39.70;29.20;;;;;;5155372;27;20512;-79
2022/08/03 11:48:43;;;;;;;0.70;0.70;;;39.30;29.00;;;;;;5156600;27;20060;-78
2022/08/03 11:51:39;;;;;;;1.50;0.90;;;37.90;29.30;;;;;;5155227;27;20022;-79
2022/08/03 11:54:05;;;;;;;0.90;0.77;;;38.10;29.70;;;;;;5138878;27;20030;-78
2022/08/03 11:56:48;;;;;;;0.85;0.85;;;37.90;29.70;;;;;;5156369;27;20150;-77
2022/08/03 11:59:15;;;;;;;1.55;1.00;;;38.30;30.00;;;;;;5154733;27;20019;-78
2022/08/03 12:01:40;;;;;;;2.13;0.85;;;38.70;29.30;;;;;;5156292;27;20019;-78
2022/08/03 12:04:06;;;;;;;1.02;0.82;;;39.10;29.00;;;;;;5154839;27;20034;-78
2022/08/03 12:06:53;;;;;;;0.98;0.75;;;39.30;29.40;;;;;;5155033;27;20058;-78
2022/08/03 12:09:17;;;;;;;1.77;0.88;;;39.70;28.80;;;;;;5155793;27;20030;-78
2022/08/03 12:11:47;;;;;;;2.53;1.00;;;39.40;29.40;;;;;;5154934;27;20379;-79
2022/08/03 12:14:16;;;;;;;1.90;0.90;;;39.60;29.60;;;;;;5156308;27;20375;-79
2022/08/03 12:16:47;;;;;;;4.43;0.68;;;40.10;29.40;;;;;;5155931;27;20051;-78
2022/08/03 12:19:14;;;;;;;0.73;0.60;;;40.30;28.90;;;;;;5155074;27;20423;-77
2022/08/03 12:21:49;;;;;;;0.95;0.90;;;39.30;29.50;;;;;;5155911;27;20119;-77
2022/08/03 12:24:15;;;;;;;1.20;0.98;;;38.60;29.70;;;;;;5154684;27;20113;-77
2022/08/03 12:26:47;;;;;;;1.08;0.80;;;39.00;30.00;;;;;;5154720;27;20439;-75
2022/08/03 12:29:30;;;;;;;5.28;0.70;;;38.60;29.40;;;;;;5155762;27;20030;-77
2022/08/03 12:31:56;;;;;;;2.65;1.00;;;38.60;29.40;;;;;;5155281;27;20023;-77
2022/08/03 12:34:22;;;;;;;0.82;0.82;;;38.70;29.70;;;;;;5154094;27;20026;-77
2022/08/03 12:36:53;;;;;;;8.85;0.90;;;39.10;29.10;;;;;;5154498;27;20075;-77
2022/08/03 12:39:24;;;;;;;0.82;0.70;;;39.40;29.10;;;;;;5155329;27;20375;-77
2022/08/03 12:41:52;;;;;;;1.33;0.93;;;39.00;28.80;;;;;;5155608;27;20051;-77
2022/08/03 12:44:36;;;;;;;1.75;0.95;;;39.00;28.80;;;;;;5154185;27;20083;-77
2022/08/03 12:47:03;;;;;;;0.73;0.73;;;39.60;28.70;;;;;;5155350;27;20436;-77
2022/08/03 12:49:50;;;;;;;0.50;0.50;;;40.60;28.30;;;;;;5154361;27;20023;-77
2022/08/03 12:52:18;;;;;;;0.50;0.50;;;40.90;28.40;;;;;;5154390;27;20045;-76
2022/08/03 12:54:57;;;;;;;1.52;0.70;;;41.00;28.20;;;;;;5155516;27;20018;-77
2022/08/03 12:57:23;;;;;;;0.70;0.70;;;41.80;27.70;;;;;;5155600;27;20023;-76
2022/08/03 12:59:49;;;;;;;1.10;1.10;;;41.60;27.30;;;;;;5154044;27;20030;-77
2022/08/03 13:02:17;;;;;;;1.20;0.80;;;41.00;27.60;;;;;;5153998;27;20031;-76
2022/08/03 13:04:44;;;;;;;1.10;0.98;;;41.50;27.90;;;;;;5155509;27;20115;-77
2022/08/03 13:07:11;;;;;;;1.27;0.93;;;42.10;28.40;;;;;;5155347;27;20042;-76
2022/08/03 13:09:44;;;;;;;1.17;1.03;;;41.90;27.90;;;;;;5155267;27;20023;-76